Time;durP1;ratioP1;P1;durP2;ratioP2;P2;SDS_P1;SDS_P2;PMS_P1;PMS_P2;Temp;Humidity;BMP_temperature;BMP_pressure;BME280_temperature;BME280_humidity;BME280_pressure;Samples;Min_cycle;Max_cycle;Signal;HPM_P1;HPM_P2
2022/06/20 00:01:30;;;;;;;7.40;1.77;;;;;;;;;;4989218;28;20141;-64
2022/06/20 00:03:56;;;;;;;9.30;2.22;;;;;;;;;;4985257;28;20148;-64
2022/06/20 00:06:23;;;;;;;7.82;1.80;;;;;;;;;;4967988;28;20057;-64
2022/06/20 00:08:51;;;;;;;6.10;1.83;;;;;;;;;;4990273;28;20129;-64
2022/06/20 00:11:19;;;;;;;10.10;2.05;;;;;;;;;;4983915;28;20080;-64
2022/06/20 00:13:49;;;;;;;7.53;2.17;;;;;;;;;;4987397;28;20089;-64
2022/06/20 00:16:17;;;;;;;7.90;2.20;;;;;;;;;;4987764;28;20573;-64
2022/06/20 00:18:44;;;;;;;5.70;1.33;;;;;;;;;;4969011;28;20153;-64
2022/06/20 00:21:12;;;;;;;6.43;1.65;;;;;;;;;;4970383;28;20433;-64
2022/06/20 00:23:38;;;;;;;8.77;1.80;;;;;;;;;;4963702;28;20084;-64
2022/06/20 00:26:04;;;;;;;6.63;1.80;;;;;;;;;;4982862;28;20979;-64
2022/06/20 00:28:31;;;;;;;11.50;1.67;;;;;;;;;;4964477;28;20054;-64
2022/06/20 00:30:57;;;;;;;6.95;1.60;;;;;;;;;;4962995;28;20050;-64
2022/06/20 00:33:23;;;;;;;6.25;1.55;;;;;;;;;;4960476;28;20058;-64
2022/06/20 00:35:50;;;;;;;13.35;2.22;;;;;;;;;;4982428;28;20035;-64
2022/06/20 00:38:17;;;;;;;7.65;1.52;;;;;;;;;;4981151;28;20090;-64
2022/06/20 00:40:46;;;;;;;11.07;2.33;;;;;;;;;;4967775;28;20099;-64
2022/06/20 00:43:14;;;;;;;8.05;1.88;;;;;;;;;;4966568;28;20129;-64
2022/06/20 00:45:42;;;;;;;6.15;1.67;;;;;;;;;;4967838;28;20401;-64
2022/06/20 00:48:12;;;;;;;13.20;2.38;;;;;;;;;;4983464;28;20501;-64
2022/06/20 00:50:38;;;;;;;11.00;2.70;;;;;;;;;;4982118;28;20135;-64
2022/06/20 00:53:10;;;;;;;9.80;1.98;;;;;;;;;;4974306;28;20054;-64
2022/06/20 00:55:40;;;;;;;10.05;2.38;;;;;;;;;;4982880;28;20545;-64
2022/06/20 00:58:10;;;;;;;9.25;1.65;;;;;;;;;;4983995;28;20107;-64
2022/06/20 01:00:38;;;;;;;8.88;1.70;;;;;;;;;;4982511;28;20600;-64
2022/06/20 01:03:06;;;;;;;9.20;2.08;;;;;;;;;;4986342;28;20465;-64
2022/06/20 01:05:36;;;;;;;16.27;1.70;;;;;;;;;;4968229;28;20093;-64
2022/06/20 01:08:12;;;;;;;9.35;2.10;;;;;;;;;;4983941;28;20038;-64
2022/06/20 01:10:43;;;;;;;12.63;2.42;;;;;;;;;;4961111;28;20773;-64
2022/06/20 01:13:14;;;;;;;8.43;1.60;;;;;;;;;;4980073;28;20191;-64
2022/06/20 01:15:41;;;;;;;10.82;2.42;;;;;;;;;;4970843;28;20054;-64
2022/06/20 01:18:13;;;;;;;7.65;1.55;;;;;;;;;;4992239;28;20038;-64
2022/06/20 01:20:39;;;;;;;8.02;2.50;;;;;;;;;;4983713;28;20136;-64
2022/06/20 01:23:36;;;;;;;9.55;2.35;;;;;;;;;;4966843;28;20051;-64
2022/06/20 01:26:16;;;;;;;10.18;1.80;;;;;;;;;;4982234;28;20042;-64
2022/06/20 01:28:44;;;;;;;4.60;1.45;;;;;;;;;;4982582;28;20103;-64
2022/06/20 01:31:11;;;;;;;10.93;1.88;;;;;;;;;;4962431;28;20110;-64
2022/06/20 01:33:37;;;;;;;7.07;1.92;;;;;;;;;;4964332;28;20046;-64
2022/06/20 01:38:49;;;;;;;10.52;1.70;;;;;;;;;;4981749;28;20466;-64
2022/06/20 01:44:02;;;;;;;4.88;1.55;;;;;;;;;;4979268;28;20137;-64
2022/06/20 01:46:29;;;;;;;11.18;2.35;;;;;;;;;;4980678;28;20063;-64
2022/06/20 01:48:57;;;;;;;11.00;2.03;;;;;;;;;;4963243;28;20042;-64
2022/06/20 01:51:27;;;;;;;6.90;1.73;;;;;;;;;;4985071;28;20050;-64
2022/06/20 01:53:54;;;;;;;9.18;1.98;;;;;;;;;;4981965;28;20409;-64
2022/06/20 01:56:22;;;;;;;11.45;2.85;;;;;;;;;;4981903;28;20408;-64
2022/06/20 01:58:59;;;;;;;9.93;2.25;;;;;;;;;;4980208;28;20204;-64
2022/06/20 02:01:27;;;;;;;7.22;1.88;;;;;;;;;;4978385;28;20413;-64
2022/06/20 02:03:53;;;;;;;7.70;2.05;;;;;;;;;;4978056;28;20046;-64
2022/06/20 02:06:20;;;;;;;14.32;2.83;;;;;;;;;;4963063;28;20046;-64
2022/06/20 02:08:50;;;;;;;10.82;2.03;;;;;;;;;;4983960;28;20089;-64
2022/06/20 02:11:19;;;;;;;11.73;2.03;;;;;;;;;;4961786;28;20390;-64
2022/06/20 02:13:48;;;;;;;6.97;2.10;;;;;;;;;;4960538;28;20426;-64
2022/06/20 02:16:17;;;;;;;11.85;2.45;;;;;;;;;;4961854;28;20126;-64
2022/06/20 02:18:45;;;;;;;7.32;2.00;;;;;;;;;;4961615;28;20061;-64
2022/06/20 02:21:15;;;;;;;10.50;2.38;;;;;;;;;;4990197;28;20397;-64
2022/06/20 02:23:43;;;;;;;11.75;3.20;;;;;;;;;;4990348;28;20134;-64
2022/06/20 02:26:10;;;;;;;8.75;1.95;;;;;;;;;;4971764;28;20050;-64
2022/06/20 02:28:39;;;;;;;6.40;2.00;;;;;;;;;;4985649;28;20038;-64
2022/06/20 02:31:07;;;;;;;6.15;2.17;;;;;;;;;;4979822;28;20077;-64
2022/06/20 02:33:33;;;;;;;8.18;1.60;;;;;;;;;;4982402;28;20127;-64
2022/06/20 02:36:01;;;;;;;8.65;2.03;;;;;;;;;;4984414;28;20045;-64
2022/06/20 02:38:27;;;;;;;8.02;2.00;;;;;;;;;;4965842;28;20138;-64
2022/06/20 02:40:55;;;;;;;10.05;2.35;;;;;;;;;;4985226;28;20061;-64
2022/06/20 02:43:21;;;;;;;6.68;1.90;;;;;;;;;;4983404;28;20054;-64
2022/06/20 02:45:48;;;;;;;11.18;2.80;;;;;;;;;;4966055;28;20085;-64
2022/06/20 02:48:15;;;;;;;12.25;2.05;;;;;;;;;;4964730;28;20087;-64
2022/06/20 02:50:44;;;;;;;10.55;2.05;;;;;;;;;;4967299;28;20056;-64
2022/06/20 02:53:15;;;;;;;9.65;2.78;;;;;;;;;;4968906;28;20058;-64
2022/06/20 02:55:41;;;;;;;8.55;2.05;;;;;;;;;;5048164;28;20043;-64
2022/06/20 02:58:12;;;;;;;13.40;2.53;;;;;;;;;;4984106;28;20626;-64
2022/06/20 03:00:42;;;;;;;8.88;2.33;;;;;;;;;;4965228;28;20054;-64
2022/06/20 03:03:11;;;;;;;9.05;2.40;;;;;;;;;;4967128;28;20110;-64
2022/06/20 03:05:39;;;;;;;8.25;2.08;;;;;;;;;;4988240;28;20038;-64
2022/06/20 03:08:05;;;;;;;10.50;3.28;;;;;;;;;;4982668;28;20051;-64
2022/06/20 03:10:41;;;;;;;7.82;2.60;;;;;;;;;;4984110;28;20049;-64
2022/06/20 03:13:07;;;;;;;9.75;2.60;;;;;;;;;;4963010;28;20054;-64
2022/06/20 03:15:36;;;;;;;8.02;2.30;;;;;;;;;;4965466;28;20051;-64
2022/06/20 03:18:04;;;;;;;14.35;2.80;;;;;;;;;;4962386;28;20099;-64
2022/06/20 03:20:30;;;;;;;8.35;2.70;;;;;;;;;;4964950;28;20402;-64
2022/06/20 03:23:00;;;;;;;9.98;3.30;;;;;;;;;;4961830;28;20065;-64
2022/06/20 03:25:26;;;;;;;10.68;2.78;;;;;;;;;;4962812;28;20121;-64
2022/06/20 03:27:52;;;;;;;6.45;2.45;;;;;;;;;;4976813;28;20505;-64
2022/06/20 03:30:21;;;;;;;6.05;2.08;;;;;;;;;;4963430;28;20045;-64
2022/06/20 03:32:47;;;;;;;14.32;2.42;;;;;;;;;;4960906;28;21012;-64
2022/06/20 03:35:14;;;;;;;8.32;2.38;;;;;;;;;;4965300;28;20243;-64
2022/06/20 03:37:40;;;;;;;10.15;2.25;;;;;;;;;;4963582;28;20495;-64
2022/06/20 03:40:07;;;;;;;5.55;1.90;;;;;;;;;;4965389;28;20057;-64
2022/06/20 03:42:33;;;;;;;6.55;2.80;;;;;;;;;;4963857;28;20424;-64
2022/06/20 03:44:59;;;;;;;6.43;2.40;;;;;;;;;;4967352;28;20058;-64
2022/06/20 03:47:27;;;;;;;8.68;2.65;;;;;;;;;;4963302;28;20059;-64
2022/06/20 03:50:03;;;;;;;8.23;2.50;;;;;;;;;;4962634;28;20137;-64
2022/06/20 03:52:31;;;;;;;9.00;2.88;;;;;;;;;;4965089;28;20053;-64
2022/06/20 03:55:01;;;;;;;15.60;2.97;;;;;;;;;;4962704;28;20460;-64
2022/06/20 03:57:33;;;;;;;9.80;3.67;;;;;;;;;;4960761;28;20440;-64
2022/06/20 04:00:03;;;;;;;8.38;3.42;;;;;;;;;;4961557;28;20056;-64
2022/06/20 04:02:33;;;;;;;12.23;3.25;;;;;;;;;;4965160;28;20490;-64
2022/06/20 04:05:02;;;;;;;12.60;3.85;;;;;;;;;;4964823;28;20635;-64
2022/06/20 04:07:32;;;;;;;11.98;3.72;;;;;;;;;;4965336;28;20585;-64
2022/06/20 04:12:55;;;;;;;10.07;3.47;;;;;;;;;;4971790;28;20406;-64
2022/06/20 04:15:26;;;;;;;12.77;3.67;;;;;;;;;;4987788;28;20058;-64
2022/06/20 04:20:50;;;;;;;13.35;4.15;;;;;;;;;;4983675;28;20042;-64
2022/06/20 04:23:19;;;;;;;13.32;3.88;;;;;;;;;;4981343;28;20397;-64
2022/06/20 04:25:50;;;;;;;14.27;4.43;;;;;;;;;;4985972;28;20133;-64
2022/06/20 04:28:27;;;;;;;17.00;4.55;;;;;;;;;;4980770;28;20580;-64
2022/06/20 04:30:57;;;;;;;15.23;3.83;;;;;;;;;;4976756;28;20080;-64
2022/06/20 04:33:29;;;;;;;19.25;4.65;;;;;;;;;;4987350;28;20483;-64
2022/06/20 04:36:05;;;;;;;14.63;4.78;;;;;;;;;;4983230;28;20130;-64
2022/06/20 04:38:35;;;;;;;12.88;4.15;;;;;;;;;;4987014;28;20132;-64
2022/06/20 04:41:05;;;;;;;17.27;5.82;;;;;;;;;;4985249;28;20092;-64
2022/06/20 04:43:39;;;;;;;15.27;4.32;;;;;;;;;;4988305;28;20050;-64
2022/06/20 04:46:05;;;;;;;;;;;;;;;;;;4968365;28;20780;-64
2022/06/20 04:48:32;;;;;;;11.18;4.43;;;;;;;;;;4984570;28;19968;-64
2022/06/20 04:51:00;;;;;;;14.20;4.40;;;;;;;;;;4982943;28;20645;-64
2022/06/20 04:53:28;;;;;;;14.40;4.40;;;;;;;;;;4963391;28;20053;-64
2022/06/20 04:55:55;;;;;;;16.38;5.05;;;;;;;;;;4964589;28;20115;-63
2022/06/20 04:58:23;;;;;;;12.50;4.35;;;;;;;;;;4966864;28;20046;-64
2022/06/20 05:00:52;;;;;;;14.15;4.90;;;;;;;;;;4965700;28;20058;-64
2022/06/20 05:03:20;;;;;;;14.40;4.85;;;;;;;;;;5049913;28;20156;-64
2022/06/20 05:05:49;;;;;;;19.40;5.80;;;;;;;;;;4968951;28;20508;-64
2022/06/20 05:08:17;;;;;;;12.95;4.80;;;;;;;;;;4983828;28;20050;-65
2022/06/20 05:10:47;;;;;;;17.92;5.30;;;;;;;;;;4967493;28;20050;-64
2022/06/20 05:13:17;;;;;;;20.08;5.93;;;;;;;;;;4983428;28;20057;-64
2022/06/20 05:15:46;;;;;;;11.85;4.22;;;;;;;;;;4986291;28;20045;-65
2022/06/20 05:18:17;;;;;;;14.27;4.28;;;;;;;;;;4984484;28;20050;-64
2022/06/20 05:20:44;;;;;;;18.58;4.75;;;;;;;;;;4984737;28;20065;-64
2022/06/20 05:23:13;;;;;;;12.68;4.30;;;;;;;;;;4986195;28;20110;-63
2022/06/20 05:25:40;;;;;;;14.02;5.07;;;;;;;;;;4986687;28;20451;-64
2022/06/20 05:28:12;;;;;;;14.80;4.60;;;;;;;;;;4982753;28;20129;-63
2022/06/20 05:30:41;;;;;;;15.57;4.70;;;;;;;;;;4982232;28;20140;-63
2022/06/20 05:33:21;;;;;;;20.85;6.43;;;;;;;;;;4980701;28;20181;-63
2022/06/20 05:35:53;;;;;;;15.23;4.95;;;;;;;;;;4964573;28;20065;-63
2022/06/20 05:38:29;;;;;;;18.00;4.63;;;;;;;;;;4981405;28;20050;-63
2022/06/20 05:40:57;;;;;;;15.25;4.70;;;;;;;;;;4982824;28;20046;-63
2022/06/20 05:43:24;;;;;;;16.85;4.78;;;;;;;;;;4964437;28;20084;-63
2022/06/20 05:45:51;;;;;;;10.90;3.50;;;;;;;;;;4982152;28;20042;-63
2022/06/20 05:48:19;;;;;;;13.48;3.83;;;;;;;;;;4984616;28;20565;-63
2022/06/20 05:50:46;;;;;;;13.93;3.90;;;;;;;;;;4977456;28;20064;-63
2022/06/20 05:53:15;;;;;;;13.15;3.72;;;;;;;;;;4963076;28;20751;-79
2022/06/20 05:55:44;;;;;;;15.18;3.92;;;;;;;;;;4989344;28;20046;-64
2022/06/20 05:58:14;;;;;;;16.75;4.85;;;;;;;;;;4967530;28;20053;-64
2022/06/20 06:00:41;;;;;;;16.40;4.07;;;;;;;;;;4986266;28;20034;-64
2022/06/20 06:03:14;;;;;;;13.52;4.47;;;;;;;;;;4977573;28;20061;-63
2022/06/20 06:05:42;;;;;;;13.15;4.47;;;;;;;;;;4980291;28;20490;-63
2022/06/20 06:08:18;;;;;;;16.27;4.07;;;;;;;;;;4965650;28;20065;-63
2022/06/20 06:10:46;;;;;;;16.30;3.90;;;;;;;;;;4980839;28;20750;-63
2022/06/20 06:13:17;;;;;;;12.45;3.55;;;;;;;;;;4963172;28;20394;-63
2022/06/20 06:18:39;;;;;;;15.40;4.45;;;;;;;;;;4962939;28;20145;-65
2022/06/20 06:21:05;;;;;;;17.88;3.47;;;;;;;;;;4963367;28;20042;-63
2022/06/20 06:23:32;;;;;;;16.15;3.83;;;;;;;;;;4982117;28;20042;-63
2022/06/20 06:25:58;;;;;;;15.63;4.43;;;;;;;;;;4979857;28;20053;-65
2022/06/20 06:28:25;;;;;;;15.00;4.80;;;;;;;;;;4982021;28;20199;-65
2022/06/20 06:30:59;;;;;;;14.00;3.80;;;;;;;;;;4979965;28;20133;-63
2022/06/20 06:33:33;;;;;;;15.52;3.72;;;;;;;;;;4977750;28;20081;-64
2022/06/20 06:36:03;;;;;;;12.63;3.95;;;;;;;;;;4978329;28;20049;-63
2022/06/20 06:38:34;;;;;;;16.23;4.30;;;;;;;;;;4977857;28;20046;-63
2022/06/20 06:41:01;;;;;;;13.25;3.33;;;;;;;;;;4977560;28;20470;-62
2022/06/20 06:43:29;;;;;;;13.50;4.00;;;;;;;;;;4979051;28;20100;-63
2022/06/20 06:45:58;;;;;;;13.68;3.30;;;;;;;;;;4960457;28;20546;-63
2022/06/20 06:48:35;;;;;;;11.55;3.25;;;;;;;;;;4980247;28;20058;-63
2022/06/20 06:51:08;;;;;;;10.68;2.67;;;;;;;;;;4958420;28;20054;-63
2022/06/20 06:53:42;;;;;;;14.73;3.43;;;;;;;;;;4977329;28;20046;-64
2022/06/20 06:56:20;;;;;;;9.02;2.75;;;;;;;;;;4981524;28;20305;-63
2022/06/20 06:58:52;;;;;;;12.32;3.50;;;;;;;;;;4979187;28;20378;-63
2022/06/20 07:01:20;;;;;;;11.43;2.53;;;;;;;;;;4975686;28;20558;-63
2022/06/20 07:03:50;;;;;;;14.05;2.75;;;;;;;;;;4976232;28;20051;-63
2022/06/20 07:06:22;;;;;;;9.98;2.67;;;;;;;;;;4982064;28;20050;-63
2022/06/20 07:08:57;;;;;;;18.02;2.25;;;;;;;;;;4982356;28;20038;-63
2022/06/20 07:11:25;;;;;;;9.88;2.17;;;;;;;;;;4960974;28;21600;-63
2022/06/20 07:13:56;;;;;;;11.70;2.38;;;;;;;;;;4979983;28;20145;-63
2022/06/20 07:16:22;;;;;;;14.35;3.10;;;;;;;;;;4982674;28;20054;-63
2022/06/20 07:18:51;;;;;;;7.88;2.08;;;;;;;;;;4981366;28;20069;-63
2022/06/20 07:21:19;;;;;;;12.68;2.40;;;;;;;;;;4982727;28;20057;-62
2022/06/20 07:23:48;;;;;;;10.40;2.45;;;;;;;;;;4983684;28;20057;-63
2022/06/20 07:26:16;;;;;;;7.78;1.85;;;;;;;;;;4982927;28;20047;-63
2022/06/20 07:28:42;;;;;;;8.23;2.00;;;;;;;;;;4980978;28;20050;-63
2022/06/20 07:31:09;;;;;;;5.50;2.10;;;;;;;;;;4984735;28;20522;-62
2022/06/20 07:33:39;;;;;;;7.53;2.03;;;;;;;;;;4983101;28;20410;-63
2022/06/20 07:36:08;;;;;;;16.63;2.45;;;;;;;;;;4985623;28;20035;-62
2022/06/20 07:38:37;;;;;;;12.82;2.30;;;;;;;;;;4984741;28;20049;-62
2022/06/20 07:41:07;;;;;;;10.20;2.20;;;;;;;;;;4984896;28;20238;-62
2022/06/20 07:43:41;;;;;;;7.13;2.13;;;;;;;;;;4980746;28;20046;-63
2022/06/20 07:46:12;;;;;;;15.18;2.70;;;;;;;;;;4984181;28;20564;-63
2022/06/20 07:48:39;;;;;;;8.18;2.42;;;;;;;;;;4983214;28;20627;-62
2022/06/20 07:51:11;;;;;;;10.15;2.28;;;;;;;;;;4982376;28;20406;-63
2022/06/20 07:53:41;;;;;;;8.07;2.40;;;;;;;;;;4983906;28;20065;-62
2022/06/20 07:56:11;;;;;;;6.57;2.08;;;;;;;;;;4982508;28;20081;-63
2022/06/20 07:58:40;;;;;;;11.70;2.53;;;;;;;;;;4962864;28;20053;-63
2022/06/20 08:01:11;;;;;;;10.77;3.08;;;;;;;;;;4979858;28;20038;-63
2022/06/20 08:03:40;;;;;;;8.30;2.30;;;;;;;;;;4978582;28;20043;-63
2022/06/20 08:06:19;;;;;;;9.35;2.17;;;;;;;;;;4982779;28;20043;-63
2022/06/20 08:08:48;;;;;;;9.73;2.03;;;;;;;;;;4980993;28;20353;-63
2022/06/20 08:14:06;;;;;;;9.85;2.38;;;;;;;;;;5036496;28;20431;-63
2022/06/20 08:16:33;;;;;;;9.40;2.45;;;;;;;;;;5042558;28;20068;-63
2022/06/20 08:18:59;;;;;;;7.55;2.40;;;;;;;;;;5044447;28;20059;-63
2022/06/20 08:21:28;;;;;;;12.75;2.50;;;;;;;;;;5045039;28;20112;-63
2022/06/20 08:23:58;;;;;;;11.30;2.30;;;;;;;;;;5046139;28;20049;-63
2022/06/20 08:26:34;;;;;;;12.32;2.83;;;;;;;;;;5044186;28;20087;-63
2022/06/20 08:29:04;;;;;;;12.77;2.97;;;;;;;;;;5043098;28;20131;-63
2022/06/20 08:31:33;;;;;;;10.65;2.35;;;;;;;;;;5039787;28;20064;-62
2022/06/20 08:34:07;;;;;;;13.52;2.75;;;;;;;;;;5042041;28;20083;-63
2022/06/20 08:36:38;;;;;;;8.88;2.50;;;;;;;;;;5044198;28;20110;-63
2022/06/20 08:39:04;;;;;;;11.27;2.78;;;;;;;;;;5041711;28;20037;-63
2022/06/20 08:41:33;;;;;;;11.73;2.15;;;;;;;;;;5042364;28;20041;-63
2022/06/20 08:44:18;;;;;;;10.88;2.95;;;;;;;;;;5042746;28;20090;-63
2022/06/20 08:46:56;;;;;;;9.27;2.50;;;;;;;;;;5037839;28;20068;-66
2022/06/20 08:49:49;;;;;;;12.60;2.88;;;;;;;;;;5044543;28;20523;-64
2022/06/20 08:52:19;;;;;;;10.40;2.45;;;;;;;;;;5040459;28;20040;-64
2022/06/20 08:54:58;;;;;;;9.15;2.33;;;;;;;;;;5039877;28;20076;-64
2022/06/20 08:57:42;;;;;;;6.63;1.80;;;;;;;;;;5040384;28;20496;-64
2022/06/20 09:00:15;;;;;;;8.30;2.08;;;;;;;;;;5041513;28;20047;-64
2022/06/20 09:02:45;;;;;;;10.15;2.40;;;;;;;;;;5042276;28;20059;-64
2022/06/20 09:05:20;;;;;;;8.88;1.80;;;;;;;;;;5044213;28;20083;-64
2022/06/20 09:08:11;;;;;;;5.47;1.60;;;;;;;;;;5047043;28;20527;-64
2022/06/20 09:10:50;;;;;;;11.20;2.08;;;;;;;;;;5046612;28;20056;-64
2022/06/20 09:13:27;;;;;;;13.85;2.00;;;;;;;;;;5005599;28;20286;-64
2022/06/20 09:16:10;;;;;;;8.65;1.88;;;;;;;;;;4982767;28;20058;-64
2022/06/20 09:18:39;;;;;;;10.45;2.38;;;;;;;;;;4979245;28;20057;-64
2022/06/20 09:21:16;;;;;;;10.70;2.55;;;;;;;;;;4982306;28;20137;-64
2022/06/20 09:23:43;;;;;;;8.43;2.15;;;;;;;;;;4979779;28;20405;-64
2022/06/20 09:26:16;;;;;;;9.23;2.17;;;;;;;;;;4982045;28;20104;-64
2022/06/20 09:28:50;;;;;;;10.35;1.98;;;;;;;;;;4981792;28;20129;-64
2022/06/20 09:31:42;;;;;;;7.10;1.92;;;;;;;;;;4981321;28;20085;-64
2022/06/20 09:34:18;;;;;;;6.97;1.60;;;;;;;;;;4987518;28;20054;-64
2022/06/20 09:37:06;;;;;;;10.73;1.50;;;;;;;;;;4988077;28;20078;-63
2022/06/20 09:39:36;;;;;;;8.73;2.67;;;;;;;;;;4964056;28;20047;-65
2022/06/20 09:42:13;;;;;;;6.63;2.22;;;;;;;;;;4979070;28;20039;-64
2022/06/20 09:44:44;;;;;;;10.82;2.72;;;;;;;;;;4983193;28;20046;-64
2022/06/20 09:47:20;;;;;;;9.88;2.67;;;;;;;;;;4982224;28;20045;-64
2022/06/20 09:49:52;;;;;;;10.70;2.53;;;;;;;;;;4984580;28;20084;-63
2022/06/20 09:52:22;;;;;;;8.18;2.40;;;;;;;;;;4963489;28;20066;-64
2022/06/20 09:54:57;;;;;;;7.65;2.00;;;;;;;;;;4965151;28;20046;-64
2022/06/20 09:57:34;;;;;;;12.38;2.50;;;;;;;;;;4979979;28;20050;-64
2022/06/20 10:00:01;;;;;;;9.85;2.00;;;;;;;;;;4979092;28;20042;-63
2022/06/20 10:02:32;;;;;;;10.82;2.53;;;;;;;;;;4982112;28;20049;-63
2022/06/20 10:05:08;;;;;;;8.48;2.15;;;;;;;;;;4982406;28;20114;-63
2022/06/20 10:07:37;;;;;;;9.65;2.00;;;;;;;;;;4982556;28;20091;-63
2022/06/20 10:10:11;;;;;;;11.75;2.35;;;;;;;;;;4981899;28;20087;-63
2022/06/20 10:12:38;;;;;;;12.50;2.55;;;;;;;;;;4982932;28;20605;-64
2022/06/20 10:15:23;;;;;;;8.98;2.20;;;;;;;;;;4984210;28;20100;-63
2022/06/20 10:18:08;;;;;;;9.15;2.35;;;;;;;;;;4979528;28;20065;-64
2022/06/20 10:20:38;;;;;;;9.57;1.85;;;;;;;;;;4976500;28;20043;-64
2022/06/20 10:23:10;;;;;;;10.32;2.28;;;;;;;;;;4962601;28;20046;-63
2022/06/20 10:25:48;;;;;;;7.25;2.20;;;;;;;;;;4980140;28;20397;-63
2022/06/20 10:28:15;;;;;;;8.02;2.25;;;;;;;;;;4981079;28;20440;-64
2022/06/20 10:30:50;;;;;;;12.07;2.63;;;;;;;;;;4983105;28;20460;-63
2022/06/20 10:33:29;;;;;;;7.55;2.17;;;;;;;;;;4982600;28;20043;-63
2022/06/20 10:36:05;;;;;;;8.43;1.77;;;;;;;;;;4969332;28;20796;-63
2022/06/20 10:38:43;;;;;;;7.70;1.88;;;;;;;;;;4984994;28;20050;-64
2022/06/20 10:41:24;;;;;;;8.63;2.00;;;;;;;;;;4972387;28;20054;-64
2022/06/20 10:44:06;;;;;;;9.60;2.00;;;;;;;;;;4971651;28;20042;-63
2022/06/20 10:46:39;;;;;;;9.90;2.70;;;;;;;;;;4988582;28;20125;-64
2022/06/20 10:49:12;;;;;;;9.25;2.22;;;;;;;;;;4988329;28;20095;-63
2022/06/20 10:51:52;;;;;;;7.28;1.77;;;;;;;;;;4989198;28;20055;-64
2022/06/20 10:54:44;;;;;;;6.53;1.95;;;;;;;;;;4987889;28;20061;-64
2022/06/20 10:57:16;;;;;;;5.88;1.70;;;;;;;;;;4987775;28;20043;-64
2022/06/20 10:59:48;;;;;;;7.05;1.85;;;;;;;;;;4987140;28;20050;-64
2022/06/20 11:02:27;;;;;;;6.17;1.70;;;;;;;;;;4984537;28;20038;-64
2022/06/20 11:05:03;;;;;;;6.40;1.58;;;;;;;;;;4986182;28;20053;-64
2022/06/20 11:07:42;;;;;;;6.53;1.55;;;;;;;;;;4987674;28;20331;-64
2022/06/20 11:10:19;;;;;;;6.63;2.08;;;;;;;;;;4972204;28;20426;-62
2022/06/20 11:12:45;;;;;;;9.45;2.47;;;;;;;;;;4989184;28;20054;-64
2022/06/20 11:15:23;;;;;;;9.73;1.90;;;;;;;;;;4987626;28;20069;-63
2022/06/20 11:17:51;;;;;;;7.10;2.05;;;;;;;;;;4962845;28;20138;-63
2022/06/20 11:20:31;;;;;;;10.30;2.28;;;;;;;;;;4987947;28;20050;-63
2022/06/20 11:23:05;;;;;;;10.13;2.10;;;;;;;;;;4988541;28;20431;-63
2022/06/20 11:25:50;;;;;;;11.90;2.15;;;;;;;;;;4989260;28;20054;-63
2022/06/20 11:28:25;;;;;;;8.25;1.83;;;;;;;;;;4985974;28;20099;-64
2022/06/20 11:31:11;;;;;;;5.15;1.55;;;;;;;;;;4987021;28;20072;-64
2022/06/20 11:36:32;;;;;;;6.93;1.58;;;;;;;;;;4987852;28;20055;-63
2022/06/20 11:39:09;;;;;;;7.35;1.95;;;;;;;;;;4987602;28;20043;-63
2022/06/20 11:41:38;;;;;;;5.90;2.20;;;;;;;;;;4986308;28;20046;-63
2022/06/20 11:44:13;;;;;;;5.43;1.73;;;;;;;;;;4985803;28;20107;-63
2022/06/20 11:46:49;;;;;;;9.48;1.80;;;;;;;;;;4985268;28;20046;-63
2022/06/20 11:49:33;;;;;;;8.32;1.63;;;;;;;;;;4986248;28;20460;-64
2022/06/20 11:52:18;;;;;;;6.85;1.55;;;;;;;;;;4987904;28;20073;-64
2022/06/20 11:54:57;;;;;;;12.95;2.05;;;;;;;;;;4989973;28;20030;-64
2022/06/20 11:57:35;;;;;;;5.40;1.70;;;;;;;;;;4998968;28;20056;-64
2022/06/20 12:00:03;;;;;;;6.65;1.55;;;;;;;;;;4991812;28;20103;-65
2022/06/20 12:02:48;;;;;;;7.45;1.77;;;;;;;;;;4993215;28;20050;-65
2022/06/20 12:05:24;;;;;;;7.45;1.67;;;;;;;;;;4996082;28;20453;-65
2022/06/20 12:07:54;;;;;;;7.40;2.10;;;;;;;;;;4995634;28;20465;-65
2022/06/20 12:10:26;;;;;;;5.88;1.35;;;;;;;;;;4984397;28;20046;-65
2022/06/20 12:13:11;;;;;;;4.65;1.38;;;;;;;;;;4983748;28;21804;-65
2022/06/20 12:15:40;;;;;;;6.32;1.42;;;;;;;;;;4984290;28;20114;-64
2022/06/20 12:18:15;;;;;;;9.68;2.58;;;;;;;;;;4982844;28;20054;-64
2022/06/20 12:23:36;;;;;;;5.53;1.60;;;;;;;;;;4983836;28;20055;-65
2022/06/20 12:26:06;;;;;;;10.65;1.75;;;;;;;;;;5050045;28;20199;-64
2022/06/20 12:28:34;;;;;;;5.93;1.58;;;;;;;;;;4981679;28;20046;-64
2022/06/20 12:31:13;;;;;;;5.15;1.67;;;;;;;;;;4985226;28;20096;-64
2022/06/20 12:33:41;;;;;;;4.88;1.30;;;;;;;;;;4983994;28;20100;-64
2022/06/20 12:36:18;;;;;;;7.10;1.52;;;;;;;;;;4985367;28;20059;-64
2022/06/20 12:38:48;;;;;;;5.35;1.67;;;;;;;;;;4986444;28;20492;-64
2022/06/20 12:41:18;;;;;;;7.93;2.08;;;;;;;;;;4983243;28;20457;-64
2022/06/20 12:43:55;;;;;;;7.72;2.15;;;;;;;;;;4981773;28;20504;-64
2022/06/20 12:46:39;;;;;;;5.93;1.83;;;;;;;;;;4982000;28;20145;-64
2022/06/20 12:49:18;;;;;;;6.32;1.60;;;;;;;;;;4984167;28;20968;-64
2022/06/20 12:51:48;;;;;;;9.27;2.28;;;;;;;;;;4981899;28;20142;-64
2022/06/20 12:54:14;;;;;;;6.45;1.85;;;;;;;;;;4982803;28;20375;-64
2022/06/20 12:56:52;;;;;;;7.45;1.65;;;;;;;;;;4985184;28;20462;-64
2022/06/20 12:59:21;;;;;;;6.47;1.50;;;;;;;;;;4966392;28;20092;-64
2022/06/20 13:01:47;;;;;;;7.85;1.73;;;;;;;;;;4985828;28;20074;-64
2022/06/20 13:04:22;;;;;;;5.05;1.42;;;;;;;;;;4985626;28;20051;-64
2022/06/20 13:06:56;;;;;;;4.30;1.60;;;;;;;;;;4982215;28;20078;-64
2022/06/20 13:09:30;;;;;;;7.40;1.65;;;;;;;;;;4985175;28;20046;-64
2022/06/20 13:12:02;;;;;;;8.18;1.65;;;;;;;;;;4983493;28;20054;-65
2022/06/20 13:14:38;;;;;;;7.50;1.80;;;;;;;;;;4984935;28;20473;-64
2022/06/20 13:17:15;;;;;;;6.10;1.95;;;;;;;;;;4973455;28;20034;-64
2022/06/20 13:19:51;;;;;;;5.18;1.27;;;;;;;;;;4988011;28;20128;-64
2022/06/20 13:22:29;;;;;;;4.88;1.50;;;;;;;;;;4986768;28;20406;-64
2022/06/20 13:25:06;;;;;;;4.15;1.65;;;;;;;;;;4984753;28;20042;-64
2022/06/20 13:27:41;;;;;;;6.00;1.40;;;;;;;;;;4983468;28;20042;-64
2022/06/20 13:30:08;;;;;;;8.57;1.75;;;;;;;;;;4982642;28;20073;-64
2022/06/20 13:32:44;;;;;;;5.03;1.45;;;;;;;;;;4983111;28;21527;-64
2022/06/20 13:35:21;;;;;;;6.70;1.90;;;;;;;;;;4982760;28;20046;-64
2022/06/20 13:37:52;;;;;;;6.53;1.75;;;;;;;;;;4979060;28;20050;-64
2022/06/20 13:40:30;;;;;;;7.55;1.70;;;;;;;;;;4981871;28;20497;-64
2022/06/20 13:43:15;;;;;;;8.02;2.08;;;;;;;;;;4980683;28;20053;-64
2022/06/20 13:45:45;;;;;;;6.68;1.67;;;;;;;;;;4985617;28;20062;-64
2022/06/20 13:48:11;;;;;;;7.95;1.95;;;;;;;;;;4983686;28;20043;-64
2022/06/20 13:50:52;;;;;;;7.22;1.88;;;;;;;;;;4985296;28;20508;-64
2022/06/20 13:53:23;;;;;;;8.57;1.65;;;;;;;;;;4982417;28;20034;-64
2022/06/20 13:55:52;;;;;;;8.00;1.67;;;;;;;;;;4980124;28;20795;-64
2022/06/20 13:58:23;;;;;;;6.68;1.83;;;;;;;;;;4984972;28;20039;-64
2022/06/20 14:00:55;;;;;;;7.45;1.80;;;;;;;;;;4985424;28;20068;-64
2022/06/20 14:03:26;;;;;;;7.07;1.75;;;;;;;;;;4983140;28;20058;-64
2022/06/20 14:06:03;;;;;;;6.55;1.77;;;;;;;;;;4983862;28;20039;-64
2022/06/20 14:08:29;;;;;;;4.40;1.52;;;;;;;;;;4983600;28;20074;-64
2022/06/20 14:10:57;;;;;;;6.03;1.67;;;;;;;;;;4985561;28;20039;-64
2022/06/20 14:13:26;;;;;;;4.63;1.33;;;;;;;;;;4985402;28;20054;-64
2022/06/20 14:15:53;;;;;;;5.80;1.50;;;;;;;;;;4983190;28;20046;-64
2022/06/20 14:18:23;;;;;;;7.68;1.77;;;;;;;;;;4985081;28;20050;-64
2022/06/20 14:20:54;;;;;;;2.88;0.90;;;;;;;;;;4967196;28;20054;-64
2022/06/20 14:23:21;;;;;;;4.88;1.50;;;;;;;;;;4982386;28;20517;-64
2022/06/20 14:25:51;;;;;;;7.57;1.83;;;;;;;;;;4984812;28;20188;-64
2022/06/20 14:28:20;;;;;;;6.53;1.70;;;;;;;;;;4983173;28;20574;-64
2022/06/20 14:30:51;;;;;;;8.10;1.80;;;;;;;;;;4983219;28;20125;-64
2022/06/20 14:33:20;;;;;;;5.68;1.60;;;;;;;;;;4982846;28;20061;-64
2022/06/20 14:35:47;;;;;;;7.85;1.58;;;;;;;;;;4985863;28;20104;-64
2022/06/20 14:38:22;;;;;;;8.23;1.70;;;;;;;;;;4982293;28;20039;-64
2022/06/20 14:40:53;;;;;;;5.32;1.35;;;;;;;;;;4983677;28;20291;-64
2022/06/20 14:43:29;;;;;;;5.60;1.83;;;;;;;;;;4981467;28;20054;-64
2022/06/20 14:46:05;;;;;;;8.68;2.00;;;;;;;;;;4979239;28;20056;-64
2022/06/20 14:48:34;;;;;;;9.50;2.20;;;;;;;;;;4983751;28;20039;-63
2022/06/20 14:51:00;;;;;;;9.90;2.58;;;;;;;;;;4984154;28;20078;-73
2022/06/20 14:53:28;;;;;;;10.23;2.50;;;;;;;;;;4965344;28;20038;-62
2022/06/20 14:56:03;;;;;;;10.65;2.45;;;;;;;;;;4983415;28;20148;-63
2022/06/20 14:58:30;;;;;;;14.32;2.63;;;;;;;;;;4983248;28;20086;-63
2022/06/20 15:01:04;;;;;;;12.40;2.60;;;;;;;;;;4983991;28;20038;-62
2022/06/20 15:03:39;;;;;;;13.13;2.90;;;;;;;;;;4970978;28;20057;-63
2022/06/20 15:06:11;;;;;;;10.82;2.47;;;;;;;;;;4982047;28;20043;-62
2022/06/20 15:08:42;;;;;;;11.27;2.60;;;;;;;;;;4984179;28;20159;-71
2022/06/20 15:11:17;;;;;;;14.60;2.60;;;;;;;;;;4972713;28;20057;-63
2022/06/20 15:13:51;;;;;;;13.05;3.25;;;;;;;;;;4986097;28;20133;-63
2022/06/20 15:16:24;;;;;;;9.43;2.60;;;;;;;;;;4966973;28;20403;-63
2022/06/20 15:18:54;;;;;;;5.78;1.92;;;;;;;;;;4982247;28;20043;-63
2022/06/20 15:21:25;;;;;;;8.85;2.50;;;;;;;;;;4982142;28;20043;-72
2022/06/20 15:23:58;;;;;;;13.38;2.65;;;;;;;;;;4967470;28;20054;-63
2022/06/20 15:26:30;;;;;;;9.45;2.10;;;;;;;;;;4984717;28;20635;-63